createdAt,value
2022-12-11T00:04:22.259Z,51.00
2022-12-11T00:09:25.462Z,47.70
2022-12-11T00:14:38.395Z,56.75
2022-12-11T00:19:49.579Z,43.55
2022-12-11T00:24:54.193Z,56.10
2022-12-11T00:30:46.021Z,55.30
2022-12-11T00:36:49.058Z,58.72
2022-12-11T00:41:59.336Z,66.88
2022-12-11T00:47:02.213Z,54.67
2022-12-11T00:52:15.110Z,58.67
2022-12-11T00:57:31.096Z,58.72
2022-12-11T01:02:45.723Z,62.40
2022-12-11T01:07:52.427Z,62.28
2022-12-11T01:13:07.268Z,69.22
2022-12-11T01:18:10.920Z,61.45
2022-12-11T01:23:13.522Z,64.20
2022-12-11T01:28:22.799Z,68.60
2022-12-11T01:33:30.096Z,67.78
2022-12-11T01:38:43.251Z,64.32
2022-12-11T01:44:13.233Z,55.97
2022-12-11T01:49:17.127Z,53.95
2022-12-11T01:54:23.975Z,55.30
2022-12-11T02:00:24.492Z,42.85
2022-12-11T02:05:19.666Z,45.72
2022-12-11T02:17:03.143Z,49.58
2022-12-11T02:22:13.135Z,52.67
2022-12-11T02:27:27.032Z,49.42
2022-12-11T02:33:04.611Z,54.70
2022-12-11T02:38:15.539Z,57.72
2022-12-11T02:43:30.980Z,51.97
2022-12-11T02:48:34.558Z,57.15
2022-12-11T02:53:47.652Z,54.95
2022-12-11T02:59:04.531Z,58.80
2022-12-11T03:04:06.097Z,57.28
2022-12-11T03:09:08.280Z,50.97
2022-12-11T03:14:09.838Z,65.22
2022-12-11T03:19:24.061Z,65.82
2022-12-11T03:24:38.027Z,61.03
2022-12-11T03:29:48.254Z,53.38
2022-12-11T03:40:06.835Z,55.83
2022-12-11T03:45:09.778Z,58.50
2022-12-11T03:50:16.234Z,59.47
2022-12-11T03:55:20.317Z,56.15
2022-12-11T04:00:21.996Z,54.03
2022-12-11T04:05:23.494Z,54.95
2022-12-11T04:10:24.978Z,52.95
2022-12-11T04:15:26.697Z,57.13
2022-12-11T04:20:28.335Z,53.75
2022-12-11T04:25:30.060Z,53.53
2022-12-11T04:30:34.275Z,53.30
2022-12-11T04:35:36.147Z,50.88
2022-12-11T04:40:37.634Z,48.15
2022-12-11T04:45:39.140Z,40.50
2022-12-11T04:50:40.648Z,44.38
2022-12-11T04:55:44.722Z,49.33
2022-12-11T05:00:46.584Z,39.47
2022-12-11T05:05:57.262Z,48.80
2022-12-11T05:11:03.128Z,49.88
2022-12-11T05:16:06.176Z,39.15
2022-12-11T05:21:59.279Z,41.15
2022-12-11T05:27:01.699Z,35.40
2022-12-11T05:32:04.113Z,35.85
2022-12-11T05:37:16.880Z,38.13
2022-12-11T05:42:25.558Z,34.08
2022-12-11T05:47:31.171Z,28.95
2022-12-11T05:52:32.660Z,32.53
2022-12-11T05:58:01.327Z,31.95
2022-12-11T06:03:11.115Z,34.72
2022-12-11T06:08:12.709Z,36.60
2022-12-11T06:13:28.343Z,30.55
2022-12-11T06:35:35.143Z,26.38
2022-12-11T06:46:50.854Z,31.02
2022-12-11T06:51:52.316Z,30.75
2022-12-11T06:56:55.883Z,29.33
2022-12-11T07:02:00.107Z,29.35
2022-12-11T07:07:01.889Z,30.35
2022-12-11T07:12:09.458Z,31.40
2022-12-11T07:17:11.094Z,31.17
2022-12-11T07:22:17.410Z,27.83
2022-12-11T07:27:18.795Z,30.73
2022-12-11T07:32:20.265Z,30.70
2022-12-11T07:42:45.950Z,28.50
2022-12-11T07:47:58.141Z,29.23
2022-12-11T07:58:33.308Z,31.05
2022-12-11T08:03:39.994Z,33.45
2022-12-11T08:08:50.533Z,35.10
2022-12-11T08:14:00.783Z,32.33
2022-12-11T08:29:42.125Z,28.08
2022-12-11T08:34:48.230Z,36.83
2022-12-11T08:39:49.608Z,40.65
2022-12-11T08:44:54.037Z,28.35
2022-12-11T08:49:55.538Z,30.13
2022-12-11T08:54:58.065Z,29.05
2022-12-11T08:59:59.701Z,24.88
2022-12-11T09:05:09.260Z,29.85
2022-12-11T09:10:11.100Z,29.42
2022-12-11T09:15:13.073Z,30.45
2022-12-11T09:20:44.491Z,28.35
2022-12-11T09:25:45.993Z,30.88
2022-12-11T09:30:50.141Z,23.85
2022-12-11T09:35:59.152Z,27.40
2022-12-11T09:41:00.960Z,27.70
2022-12-11T09:46:10.262Z,27.90
2022-12-11T09:51:25.986Z,31.30
2022-12-11T09:56:40.097Z,35.53
2022-12-11T10:02:36.817Z,31.17
2022-12-11T10:07:50.313Z,32.63
2022-12-11T10:13:06.835Z,34.83
2022-12-11T10:18:15.870Z,37.30
2022-12-11T10:23:28.794Z,31.05
2022-12-11T10:28:30.246Z,29.33
2022-12-11T10:33:49.471Z,30.05
2022-12-11T10:38:51.029Z,28.73
2022-12-11T10:43:53.436Z,32.70
2022-12-11T10:48:58.017Z,31.10
2022-12-11T10:54:07.490Z,33.13
2022-12-11T10:59:24.127Z,33.72
2022-12-11T11:04:36.014Z,41.47
2022-12-11T11:09:37.403Z,53.92
2022-12-11T11:14:38.869Z,61.22
2022-12-11T11:19:40.429Z,64.47
2022-12-11T11:24:45.780Z,59.17
2022-12-11T11:29:52.803Z,51.63
2022-12-11T11:35:06.067Z,57.55
2022-12-11T11:40:27.935Z,49.67
2022-12-11T11:46:02.579Z,54.30
2022-12-11T11:51:13.846Z,56.10
2022-12-11T11:56:26.894Z,63.53
2022-12-11T12:01:29.215Z,58.22
2022-12-11T12:06:50.388Z,61.75
2022-12-11T12:12:00.128Z,52.60
2022-12-11T12:17:26.000Z,55.08
2022-12-11T12:22:36.424Z,47.85
2022-12-11T12:28:00.777Z,48.70
2022-12-11T12:33:20.305Z,44.33
2022-12-11T12:38:23.445Z,37.37
2022-12-11T12:43:37.233Z,41.50
2022-12-11T12:48:39.161Z,41.60
2022-12-11T12:53:44.332Z,37.63
2022-12-11T12:58:46.401Z,38.38
2022-12-11T13:03:55.089Z,33.78
2022-12-11T13:08:56.954Z,31.52
2022-12-11T13:14:08.725Z,37.13
2022-12-11T13:19:22.792Z,36.28
2022-12-11T13:24:27.519Z,31.73
2022-12-11T13:29:32.021Z,36.20
2022-12-11T13:34:36.994Z,34.88
2022-12-11T13:39:40.162Z,28.55
2022-12-11T13:44:42.586Z,35.25
2022-12-11T13:49:47.099Z,32.03
2022-12-11T13:54:51.052Z,43.17
2022-12-11T13:59:54.766Z,38.50
2022-12-11T14:05:00.739Z,33.15
2022-12-11T14:10:15.893Z,35.05
2022-12-11T14:15:17.472Z,30.15
2022-12-11T14:20:22.529Z,35.88
2022-12-11T14:25:26.767Z,33.30
2022-12-11T14:30:31.723Z,47.53
2022-12-11T14:35:39.349Z,33.15
2022-12-11T14:40:43.558Z,29.42
2022-12-11T14:45:49.131Z,34.08
2022-12-11T14:50:53.430Z,36.00
2022-12-11T14:55:57.888Z,40.45
2022-12-11T15:01:05.623Z,34.97
2022-12-11T15:06:30.072Z,32.00
2022-12-11T15:11:32.256Z,34.60
2022-12-11T15:16:37.206Z,38.30
2022-12-11T15:21:38.670Z,32.83
2022-12-11T15:26:46.491Z,35.88
2022-12-11T15:32:17.909Z,38.30
2022-12-11T15:37:21.920Z,34.47
2022-12-11T15:42:31.797Z,34.15
2022-12-11T15:47:33.372Z,31.48
2022-12-11T15:52:34.809Z,41.05
2022-12-11T15:57:36.960Z,44.45
2022-12-11T16:02:38.439Z,36.95
2022-12-11T16:07:40.361Z,37.58
2022-12-11T16:12:41.927Z,40.05
2022-12-11T16:17:43.312Z,42.47
2022-12-11T16:22:44.726Z,41.13
2022-12-11T16:27:46.049Z,42.75
2022-12-11T16:32:47.434Z,41.00
2022-12-11T16:37:50.155Z,38.50
2022-12-11T16:42:51.720Z,33.30
2022-12-11T16:47:53.386Z,41.20
2022-12-11T16:52:54.685Z,38.30
2022-12-11T16:57:56.105Z,31.92
2022-12-11T17:02:57.568Z,32.13
2022-12-11T17:07:59.324Z,28.35
2022-12-11T17:13:00.785Z,38.15
2022-12-11T17:18:02.109Z,38.58
2022-12-11T17:23:03.530Z,35.33
2022-12-11T17:28:04.992Z,40.67
2022-12-11T17:33:06.698Z,29.65
2022-12-11T17:38:09.269Z,39.95
2022-12-11T17:43:12.060Z,36.30
2022-12-11T17:48:13.920Z,33.60
2022-12-11T17:53:17.652Z,35.60
2022-12-11T17:58:23.244Z,39.90
2022-12-11T18:03:26.319Z,40.55
2022-12-11T18:08:27.846Z,35.50
2022-12-11T18:13:29.248Z,33.47
2022-12-11T18:18:30.767Z,33.53
2022-12-11T18:23:32.452Z,36.78
2022-12-11T18:28:33.864Z,35.38
2022-12-11T18:33:37.734Z,39.10
2022-12-11T18:38:40.107Z,32.83
2022-12-11T18:43:41.826Z,39.05
2022-12-11T18:48:44.405Z,39.65
2022-12-11T18:53:46.414Z,38.22
2022-12-11T18:58:48.602Z,34.40
2022-12-11T19:03:50.853Z,35.90
2022-12-11T19:08:52.673Z,37.60
2022-12-11T19:13:54.602Z,39.78
2022-12-11T19:18:58.349Z,42.15
2022-12-11T19:23:59.685Z,36.67
2022-12-11T19:29:01.420Z,36.15
2022-12-11T19:34:02.884Z,36.25
2022-12-11T19:39:09.815Z,34.30
2022-12-11T19:44:14.143Z,36.65
2022-12-11T19:49:15.775Z,37.05
2022-12-11T19:54:17.605Z,41.05
2022-12-11T19:59:19.074Z,36.38
2022-12-11T20:04:20.526Z,34.15
2022-12-11T20:09:22.279Z,31.88
2022-12-11T20:14:26.005Z,35.22
2022-12-11T20:19:27.538Z,34.45
2022-12-11T20:24:28.937Z,37.00
2022-12-11T20:29:30.520Z,29.50
2022-12-11T20:34:31.941Z,33.42
2022-12-11T20:39:33.690Z,30.23
2022-12-11T20:44:35.056Z,33.70
2022-12-11T20:49:36.521Z,33.00
2022-12-11T20:54:37.935Z,34.78
2022-12-11T20:59:39.379Z,35.42
2022-12-11T21:04:41.209Z,33.70
2022-12-11T21:09:42.894Z,36.80
2022-12-11T21:14:44.444Z,37.08
2022-12-11T21:19:45.803Z,37.78
2022-12-11T21:24:47.216Z,42.67
2022-12-11T21:29:48.735Z,39.63
2022-12-11T21:34:51.483Z,39.63
2022-12-11T21:39:56.385Z,32.42
2022-12-11T21:50:19.243Z,34.85
2022-12-11T21:55:20.604Z,34.58
2022-12-11T22:00:22.408Z,31.65
2022-12-11T22:05:23.730Z,32.83
2022-12-11T22:10:25.254Z,40.30
2022-12-11T22:15:26.580Z,34.58
2022-12-11T22:20:28.831Z,31.05
2022-12-11T22:25:30.296Z,34.20
2022-12-11T22:30:32.053Z,30.38
2022-12-11T22:35:33.532Z,28.20
2022-12-11T22:40:38.527Z,30.77
2022-12-11T22:45:40.236Z,31.10
2022-12-11T22:50:42.177Z,32.47
2022-12-11T22:55:43.524Z,28.23
2022-12-11T23:00:45.029Z,29.58
2022-12-11T23:05:46.497Z,29.83
2022-12-11T23:10:47.921Z,29.90
2022-12-11T23:15:49.300Z,30.77
2022-12-11T23:20:50.857Z,28.20
2022-12-11T23:25:52.341Z,31.73
2022-12-11T23:30:53.792Z,35.17
2022-12-11T23:35:55.185Z,32.70
2022-12-11T23:40:59.161Z,35.97
2022-12-11T23:46:00.562Z,30.20
2022-12-11T23:51:03.844Z,27.30
2022-12-11T23:56:08.041Z,33.05
